createdAt,value
2018-05-25T00:01:12.552Z,82.70
2018-05-25T00:03:40.794Z,82.50
2018-05-25T00:06:09.803Z,82.40
2018-05-25T00:08:38.898Z,82.50
2018-05-25T00:11:07.909Z,82.90
2018-05-25T00:13:36.150Z,82.70
2018-05-25T00:16:05.162Z,82.30
2018-05-25T00:18:33.409Z,81.10
2018-05-25T00:21:01.643Z,81.90
2018-05-25T00:23:29.894Z,81.90
2018-05-25T00:25:58.136Z,82.80
2018-05-25T00:28:26.543Z,83.10
2018-05-25T00:30:54.782Z,82.80
2018-05-25T00:33:23.019Z,83.40
2018-05-25T00:35:51.272Z,83.60
2018-05-25T00:38:19.501Z,83.90
2018-05-25T00:40:47.740Z,84.20
2018-05-25T00:43:15.977Z,84.10
2018-05-25T00:45:44.979Z,84.30
2018-05-25T00:48:14.000Z,84.40
2018-05-25T00:50:42.229Z,84.40
2018-05-25T00:53:10.462Z,84.30
2018-05-25T00:55:40.437Z,83.60
2018-05-25T00:58:09.429Z,83.80
2018-05-25T01:00:38.838Z,83.80
2018-05-25T01:03:07.847Z,83.10
2018-05-25T01:05:36.090Z,83.10
2018-05-25T01:08:05.118Z,83.40
2018-05-25T01:10:33.354Z,83.30
2018-05-25T01:13:02.221Z,83.50
2018-05-25T01:15:30.478Z,81.90
2018-05-25T01:17:58.711Z,81.90
2018-05-25T01:20:27.795Z,82.50
2018-05-25T01:22:56.042Z,82.50
2018-05-25T01:25:24.290Z,83.60
2018-05-25T01:27:52.535Z,83.80
2018-05-25T01:30:21.536Z,84.10
2018-05-25T01:32:50.427Z,84.10
2018-05-25T01:35:18.675Z,83.80
2018-05-25T01:37:46.898Z,83.80
2018-05-25T01:40:15.141Z,83.90
2018-05-25T01:42:44.143Z,84.30
2018-05-25T01:45:12.382Z,84.20
2018-05-25T01:47:40.627Z,84.10
2018-05-25T01:50:08.869Z,84.30
2018-05-25T01:52:37.884Z,84.30
2018-05-25T01:55:06.114Z,84.20
2018-05-25T01:57:34.357Z,84.80
2018-05-25T02:00:02.593Z,84.30
2018-05-25T02:02:30.828Z,84.40
2018-05-25T02:04:59.075Z,84.40
2018-05-25T02:07:27.321Z,84.10
2018-05-25T02:09:56.331Z,84.20
2018-05-25T02:12:24.574Z,84.20
2018-05-25T02:14:53.579Z,84.40
2018-05-25T02:17:22.594Z,84.20
2018-05-25T02:19:50.846Z,84.20
2018-05-25T02:22:19.086Z,84.30
2018-05-25T02:24:47.325Z,84.30
2018-05-25T02:27:15.561Z,85.10
2018-05-25T02:29:44.581Z,83.80
2018-05-25T02:32:12.818Z,83.70
2018-05-25T02:34:41.057Z,84.10
2018-05-25T02:37:09.313Z,84.20
2018-05-25T02:39:37.546Z,84.20
2018-05-25T02:42:06.154Z,84.40
2018-05-25T02:44:34.390Z,84.30
2018-05-25T02:47:02.629Z,84.40
2018-05-25T02:49:30.882Z,84.40
2018-05-25T02:51:59.114Z,84.20
2018-05-25T02:54:28.118Z,84.40
2018-05-25T02:56:56.367Z,84.40
2018-05-25T02:59:24.812Z,84.70
2018-05-25T03:01:53.042Z,84.50
2018-05-25T03:04:21.278Z,84.10
2018-05-25T03:06:49.530Z,84.30
2018-05-25T03:09:17.769Z,84.40
2018-05-25T03:11:46.035Z,84.60
2018-05-25T03:14:14.264Z,84.50
2018-05-25T03:16:42.499Z,84.30
2018-05-25T03:19:11.007Z,84.40
2018-05-25T03:21:40.005Z,84.20
2018-05-25T03:24:08.246Z,84.10
2018-05-25T03:26:36.495Z,84.30
2018-05-25T03:29:04.726Z,84.50
2018-05-25T03:31:34.042Z,84.50
2018-05-25T03:34:02.282Z,84.40
2018-05-25T03:36:30.514Z,84.60
2018-05-25T03:38:58.778Z,84.30
2018-05-25T03:41:27.016Z,84.40
2018-05-25T03:43:56.029Z,84.50
2018-05-25T03:46:24.269Z,84.40
2018-05-25T03:48:52.519Z,84.40
2018-05-25T03:51:21.157Z,83.90
2018-05-25T03:53:50.156Z,83.90
2018-05-25T03:56:18.398Z,83.80
2018-05-25T03:59:04.751Z,84.30
2018-05-25T04:01:50.822Z,84.40
2018-05-25T04:04:19.165Z,84.70
2018-05-25T04:06:47.407Z,84.50
2018-05-25T04:09:15.642Z,84.40
2018-05-25T04:11:44.670Z,83.90
2018-05-25T04:14:12.920Z,83.90
2018-05-25T04:16:42.230Z,84.00
2018-05-25T04:19:10.468Z,84.00
2018-05-25T04:21:38.705Z,84.40
2018-05-25T04:24:07.359Z,84.70
2018-05-25T04:26:35.590Z,84.10
2018-05-25T04:29:03.847Z,84.20
2018-05-25T04:31:32.489Z,84.60
2018-05-25T04:34:00.724Z,85.00
2018-05-25T04:36:28.954Z,85.00
2018-05-25T04:38:57.197Z,85.10
2018-05-25T04:41:26.202Z,85.50
2018-05-25T04:43:55.614Z,85.60
2018-05-25T04:46:23.845Z,85.60
2018-05-25T04:48:52.078Z,85.90
2018-05-25T04:51:20.546Z,85.50
2018-05-25T04:53:49.693Z,85.70
2018-05-25T04:56:17.934Z,86.00
2018-05-25T04:58:46.190Z,86.20
2018-05-25T05:01:15.180Z,86.20
2018-05-25T05:03:44.173Z,86.20
2018-05-25T05:06:13.188Z,86.40
2018-05-25T05:08:41.422Z,86.40
2018-05-25T05:11:09.674Z,86.00
2018-05-25T05:13:37.921Z,86.00
2018-05-25T05:16:06.174Z,86.20
2018-05-25T05:18:34.406Z,86.10
2018-05-25T05:21:02.664Z,85.00
2018-05-25T05:23:30.903Z,84.40
2018-05-25T05:25:59.134Z,83.70
2018-05-25T05:28:27.387Z,83.20
2018-05-25T05:30:55.627Z,83.50
2018-05-25T05:33:23.858Z,83.60
2018-05-25T05:35:53.622Z,83.20
2018-05-25T05:38:22.185Z,83.20
2018-05-25T05:40:51.233Z,84.00
2018-05-25T05:43:19.430Z,84.00
2018-05-25T05:45:47.679Z,84.40
2018-05-25T05:48:15.910Z,84.20
2018-05-25T05:50:44.914Z,83.00
2018-05-25T05:53:13.178Z,82.90
2018-05-25T05:55:42.178Z,84.00
2018-05-25T05:58:11.181Z,84.60
2018-05-25T06:00:39.410Z,84.60
2018-05-25T06:03:07.641Z,84.70
2018-05-25T06:05:35.894Z,84.40
2018-05-25T06:08:04.134Z,85.00
2018-05-25T06:10:32.755Z,84.30
2018-05-25T06:13:01.132Z,83.30
2018-05-25T06:15:30.122Z,83.20
2018-05-25T06:17:59.142Z,83.40
2018-05-25T06:20:27.372Z,83.40
2018-05-25T06:22:55.667Z,83.20
2018-05-25T06:25:24.702Z,83.00
2018-05-25T06:27:53.352Z,82.90
2018-05-25T06:30:21.585Z,82.80
2018-05-25T06:32:49.819Z,83.40
2018-05-25T06:35:18.073Z,83.70
2018-05-25T06:37:47.094Z,82.60
2018-05-25T06:40:15.334Z,82.60
2018-05-25T06:42:44.343Z,83.30
2018-05-25T06:45:12.595Z,83.30
2018-05-25T06:47:40.830Z,83.50
2018-05-25T06:50:09.066Z,83.10
2018-05-25T06:52:37.314Z,82.70
2018-05-25T06:55:05.553Z,82.40
2018-05-25T06:57:33.784Z,82.00
2018-05-25T07:00:02.827Z,78.70
2018-05-25T07:02:31.174Z,78.70
2018-05-25T07:04:59.405Z,79.40
2018-05-25T07:07:27.642Z,79.40
2018-05-25T07:09:55.886Z,79.60
2018-05-25T07:12:24.278Z,78.80
2018-05-25T07:14:52.518Z,79.10
2018-05-25T07:17:20.770Z,79.10
2018-05-25T07:19:49.019Z,79.60
2018-05-25T07:22:17.266Z,79.50
2018-05-25T07:24:46.262Z,81.20
2018-05-25T07:27:14.518Z,81.30
2018-05-25T07:29:42.751Z,78.50
2018-05-25T07:32:10.984Z,77.50
2018-05-25T07:34:39.994Z,76.00
2018-05-25T07:37:08.225Z,75.90
2018-05-25T07:39:37.047Z,76.20
2018-05-25T07:42:05.345Z,77.60
2018-05-25T07:44:33.569Z,79.10
2018-05-25T07:47:01.813Z,80.10
2018-05-25T07:49:30.045Z,78.50
2018-05-25T07:51:59.062Z,78.20
2018-05-25T07:54:27.402Z,78.20
2018-05-25T07:56:56.327Z,76.80
2018-05-25T07:59:24.555Z,76.70
2018-05-25T08:01:52.785Z,76.90
2018-05-25T08:04:21.035Z,75.60
2018-05-25T08:06:50.037Z,73.60
2018-05-25T08:09:18.277Z,73.60
2018-05-25T08:11:46.531Z,75.60
2018-05-25T08:14:14.782Z,74.30
2018-05-25T08:16:43.019Z,74.40
2018-05-25T08:19:12.041Z,74.60
2018-05-25T08:21:40.324Z,74.60
2018-05-25T08:24:08.527Z,72.40
2018-05-25T08:26:36.757Z,70.50
2018-05-25T08:29:05.329Z,72.70
2018-05-25T08:31:34.340Z,70.40
2018-05-25T08:34:02.581Z,70.50
2018-05-25T08:36:31.603Z,69.20
2018-05-25T08:38:59.831Z,69.10
2018-05-25T08:41:29.598Z,71.10
2018-05-25T08:43:57.834Z,71.10
2018-05-25T08:46:26.071Z,71.80
2018-05-25T08:48:54.316Z,69.40
2018-05-25T08:51:22.550Z,67.80
2018-05-25T08:53:50.806Z,65.40
2018-05-25T08:56:19.237Z,66.30
2018-05-25T08:58:48.239Z,65.10
2018-05-25T09:01:16.541Z,65.10
2018-05-25T09:03:45.505Z,68.10
2018-05-25T09:06:13.765Z,68.00
2018-05-25T09:08:43.066Z,66.10
2018-05-25T09:11:12.091Z,69.60
2018-05-25T09:13:40.317Z,69.60
2018-05-25T09:16:08.580Z,69.30
2018-05-25T09:18:36.819Z,67.20
2018-05-25T09:21:05.062Z,66.30
2018-05-25T09:23:34.080Z,63.60
2018-05-25T09:26:02.322Z,63.60
2018-05-25T09:28:31.340Z,63.30
2018-05-25T09:30:59.662Z,62.50
2018-05-25T09:33:27.822Z,63.80
2018-05-25T09:35:56.064Z,63.70
2018-05-25T09:38:24.313Z,62.00
2018-05-25T09:40:53.337Z,61.10
2018-05-25T09:43:21.613Z,61.00
2018-05-25T09:45:49.819Z,59.70
2018-05-25T09:48:18.071Z,58.80
2018-05-25T09:50:46.315Z,57.40
2018-05-25T09:53:14.546Z,56.00
2018-05-25T09:55:42.801Z,54.50
2018-05-25T09:58:11.042Z,57.40
2018-05-25T10:00:40.049Z,57.30
2018-05-25T10:03:08.339Z,57.10
2018-05-25T10:05:37.313Z,57.20
2018-05-25T10:08:06.310Z,57.00
2018-05-25T10:10:34.586Z,56.90
2018-05-25T10:13:04.305Z,53.90
2018-05-25T10:15:32.882Z,53.90
2018-05-25T10:18:01.127Z,55.00
2018-05-25T10:20:29.366Z,54.50
2018-05-25T10:22:57.627Z,54.00
2018-05-25T10:25:25.871Z,52.90
2018-05-25T10:27:54.882Z,55.70
2018-05-25T10:30:23.130Z,55.70
2018-05-25T10:32:52.134Z,51.00
2018-05-25T10:35:21.155Z,50.90
2018-05-25T10:37:49.394Z,50.90
2018-05-25T10:40:18.611Z,53.00
2018-05-25T10:42:46.845Z,53.00
2018-05-25T10:45:15.082Z,52.60
2018-05-25T10:47:43.338Z,53.30
2018-05-25T10:50:12.338Z,57.30
2018-05-25T10:52:40.586Z,57.30
2018-05-25T10:55:09.130Z,54.90
2018-05-25T10:57:37.476Z,54.60
2018-05-25T11:00:05.711Z,53.60
2018-05-25T11:02:34.162Z,51.20
2018-05-25T11:05:02.402Z,50.00
2018-05-25T11:07:30.651Z,49.10
2018-05-25T11:09:59.702Z,50.50
2018-05-25T11:12:27.917Z,50.10
2018-05-25T11:14:56.917Z,52.90
2018-05-25T11:17:26.126Z,54.60
2018-05-25T11:19:55.127Z,52.90
2018-05-25T11:22:23.356Z,52.80
2018-05-25T11:24:51.808Z,54.80
2018-05-25T11:27:20.082Z,56.30
2018-05-25T11:29:49.068Z,57.50
2018-05-25T11:32:17.322Z,57.40
2018-05-25T11:34:46.318Z,53.10
2018-05-25T11:37:14.571Z,53.10
2018-05-25T11:39:43.574Z,54.60
2018-05-25T11:42:12.803Z,56.10
2018-05-25T11:44:41.032Z,56.10
2018-05-25T11:47:09.267Z,56.60
2018-05-25T11:49:37.511Z,56.40
2018-05-25T11:52:05.811Z,59.70
2018-05-25T11:54:34.047Z,59.50
2018-05-25T11:57:03.058Z,55.00
2018-05-25T11:59:31.318Z,54.90
2018-05-25T12:02:00.426Z,54.60
2018-05-25T12:04:28.670Z,54.60
2018-05-25T12:06:57.004Z,55.10
2018-05-25T12:09:25.226Z,56.30
2018-05-25T12:11:53.476Z,53.90
2018-05-25T12:14:21.709Z,54.00
2018-05-25T12:16:50.186Z,54.60
2018-05-25T12:19:18.435Z,56.20
2018-05-25T12:21:46.661Z,56.80
2018-05-25T12:24:14.921Z,56.80
2018-05-25T12:26:43.153Z,58.70
2018-05-25T12:29:12.190Z,57.90
2018-05-25T12:31:40.421Z,57.80
2018-05-25T12:34:08.685Z,55.30
2018-05-25T12:36:36.913Z,53.00
2018-05-25T12:39:05.167Z,53.00
2018-05-25T12:41:34.698Z,50.40
2018-05-25T12:44:02.988Z,50.30
2018-05-25T12:46:31.212Z,50.90
2018-05-25T12:48:59.454Z,51.40
2018-05-25T12:51:27.691Z,52.30
2018-05-25T12:53:55.941Z,51.90
2018-05-25T12:56:24.174Z,51.80
2018-05-25T12:58:52.427Z,51.20
2018-05-25T13:01:20.658Z,54.00
2018-05-25T13:03:48.905Z,54.40
2018-05-25T13:06:17.163Z,50.90
2018-05-25T13:08:45.393Z,52.90
2018-05-25T13:11:13.757Z,51.00
2018-05-25T13:13:42.001Z,48.40
2018-05-25T13:16:10.246Z,46.60
2018-05-25T13:18:38.502Z,48.30
2018-05-25T13:21:06.729Z,51.30
2018-05-25T13:23:34.985Z,52.80
2018-05-25T13:26:03.217Z,51.20
2018-05-25T13:28:31.462Z,50.10
2018-05-25T13:30:59.710Z,49.00
2018-05-25T13:33:27.951Z,48.60
2018-05-25T13:35:56.962Z,51.10
2018-05-25T13:38:29.141Z,52.60
2018-05-25T13:40:57.386Z,52.50
2018-05-25T13:43:25.660Z,49.90
2018-05-25T13:45:53.973Z,49.60
2018-05-25T13:48:22.198Z,49.20
2018-05-25T13:50:51.374Z,49.00
2018-05-25T13:53:19.814Z,47.20
2018-05-25T13:55:48.814Z,47.00
2018-05-25T13:58:17.058Z,47.00
2018-05-25T14:00:45.461Z,47.90
2018-05-25T14:03:14.462Z,51.30
2018-05-25T14:05:42.703Z,51.30
2018-05-25T14:08:10.951Z,54.20
2018-05-25T14:10:39.200Z,52.50
2018-05-25T14:13:07.440Z,53.10
2018-05-25T14:15:36.437Z,53.00
2018-05-25T14:18:05.445Z,49.90
2018-05-25T14:20:33.679Z,49.90
2018-05-25T14:23:02.186Z,50.70
2018-05-25T14:25:30.405Z,50.30
2018-05-25T14:27:58.654Z,53.20
2018-05-25T14:30:26.889Z,52.10
2018-05-25T14:32:55.146Z,52.30
2018-05-25T14:35:23.381Z,52.10
2018-05-25T14:37:51.636Z,50.70
2018-05-25T14:40:19.879Z,52.40
2018-05-25T14:42:48.138Z,52.30
2018-05-25T14:45:16.389Z,52.80
2018-05-25T14:47:45.650Z,51.40
2018-05-25T14:50:13.902Z,51.70
2018-05-25T14:52:42.149Z,52.90
2018-05-25T14:55:10.387Z,54.10
2018-05-25T14:57:38.623Z,54.10
2018-05-25T15:00:07.057Z,54.80
2018-05-25T15:02:36.067Z,56.80
2018-05-25T15:05:04.317Z,56.80
2018-05-25T15:07:33.354Z,60.00
2018-05-25T15:10:02.414Z,62.50
2018-05-25T15:12:31.422Z,61.80
2018-05-25T15:14:59.661Z,61.80
2018-05-25T15:17:27.898Z,61.70
2018-05-25T15:19:56.139Z,61.00
2018-05-25T15:22:24.376Z,60.80
2018-05-25T15:24:52.617Z,60.90
2018-05-25T15:27:21.171Z,61.90
2018-05-25T15:29:49.419Z,63.20
2018-05-25T15:32:17.642Z,63.10
2018-05-25T15:34:45.998Z,63.70
2018-05-25T15:37:15.005Z,64.20
2018-05-25T15:39:43.271Z,64.20
2018-05-25T15:42:11.523Z,65.30
2018-05-25T15:44:39.756Z,65.20
2018-05-25T15:47:08.006Z,64.40
2018-05-25T15:49:36.262Z,64.40
2018-05-25T15:52:05.351Z,64.80
2018-05-25T15:54:34.358Z,64.50
2018-05-25T15:57:02.604Z,64.50
2018-05-25T15:59:31.010Z,64.60
2018-05-25T16:02:00.028Z,64.20
2018-05-25T16:04:28.264Z,64.20
2018-05-25T16:06:56.510Z,63.80
2018-05-25T16:09:25.147Z,63.90
2018-05-25T16:11:53.451Z,63.30
2018-05-25T16:14:21.773Z,63.10
2018-05-25T16:16:50.786Z,62.60
2018-05-25T16:19:19.794Z,63.00
2018-05-25T16:21:48.043Z,63.00
2018-05-25T16:24:17.046Z,62.00
2018-05-25T16:26:46.061Z,61.80
2018-05-25T16:29:14.307Z,61.70
2018-05-25T16:31:43.313Z,61.60
2018-05-25T16:34:11.580Z,61.50
2018-05-25T16:36:40.570Z,61.20
2018-05-25T16:39:09.982Z,61.80
2018-05-25T16:41:38.981Z,61.20
2018-05-25T16:44:07.213Z,61.00
2018-05-25T16:46:35.630Z,61.30
2018-05-25T16:49:03.870Z,60.70
2018-05-25T16:51:32.107Z,59.40
2018-05-25T16:54:00.361Z,59.70
2018-05-25T16:56:28.591Z,60.00
2018-05-25T16:58:56.913Z,60.80
2018-05-25T17:01:25.108Z,61.30
2018-05-25T17:03:53.339Z,61.20
2018-05-25T17:06:21.574Z,60.80
2018-05-25T17:08:49.822Z,61.80
2018-05-25T17:11:18.072Z,61.30
2018-05-25T17:13:47.287Z,62.10
2018-05-25T17:16:15.539Z,62.10
2018-05-25T17:18:43.765Z,62.70
2018-05-25T17:21:12.027Z,62.30
2018-05-25T17:23:40.254Z,61.70
2018-05-25T17:26:08.497Z,61.30
2018-05-25T17:28:36.734Z,62.30
2018-05-25T17:31:05.752Z,62.20
2018-05-25T17:33:33.981Z,62.10
2018-05-25T17:36:02.279Z,62.90
2018-05-25T17:38:30.494Z,62.90
2018-05-25T17:40:58.829Z,63.20
2018-05-25T17:43:27.827Z,63.60
2018-05-25T17:45:56.087Z,64.40
2018-05-25T17:48:25.094Z,64.00
2018-05-25T17:50:54.116Z,65.00
2018-05-25T17:53:22.365Z,65.00
2018-05-25T17:55:51.383Z,64.00
2018-05-25T17:58:19.625Z,64.00
2018-05-25T18:00:48.617Z,64.40
2018-05-25T18:03:17.641Z,64.60
2018-05-25T18:05:45.898Z,64.50
2018-05-25T18:08:14.143Z,65.20
2018-05-25T18:10:43.151Z,65.60
2018-05-25T18:13:12.164Z,64.90
2018-05-25T18:15:40.393Z,64.90
2018-05-25T18:18:08.634Z,64.40
2018-05-25T18:20:36.879Z,64.20
2018-05-25T18:23:05.870Z,65.50
2018-05-25T18:25:34.896Z,65.80
2018-05-25T18:28:03.130Z,66.50
2018-05-25T18:30:32.138Z,66.30
2018-05-25T18:33:01.151Z,66.20
2018-05-25T18:35:29.594Z,66.20
2018-05-25T18:37:58.603Z,67.20
2018-05-25T18:40:27.605Z,67.30
2018-05-25T18:42:55.854Z,67.10
2018-05-25T18:45:24.936Z,68.50
2018-05-25T18:47:53.156Z,68.00
2018-05-25T18:50:21.397Z,67.50
2018-05-25T18:52:50.436Z,68.80
2018-05-25T18:55:18.675Z,68.30
2018-05-25T18:57:46.914Z,68.20
2018-05-25T19:00:15.157Z,68.20
2018-05-25T19:02:43.386Z,67.90
2018-05-25T19:05:11.635Z,67.90
2018-05-25T19:07:39.870Z,68.50
2018-05-25T19:10:08.139Z,68.20
2018-05-25T19:12:37.130Z,68.00
2018-05-25T19:15:06.147Z,68.20
2018-05-25T19:17:34.390Z,68.10
2018-05-25T19:20:03.407Z,67.50
2018-05-25T19:22:31.654Z,67.50
2018-05-25T19:25:00.658Z,68.40
2018-05-25T19:27:29.660Z,69.10
2018-05-25T19:29:57.915Z,69.10
2018-05-25T19:32:26.929Z,70.00
2018-05-25T19:34:55.917Z,70.50
2018-05-25T19:37:24.175Z,70.50
2018-05-25T19:39:52.422Z,70.50
2018-05-25T19:42:20.665Z,70.70
2018-05-25T19:44:48.914Z,70.90
2018-05-25T19:47:17.914Z,70.40
2018-05-25T19:49:47.314Z,70.00
2018-05-25T19:52:16.330Z,70.40
2018-05-25T19:54:44.568Z,70.30
2018-05-25T19:57:12.953Z,70.00
2018-05-25T19:59:41.954Z,69.60
2018-05-25T20:02:10.953Z,70.20
2018-05-25T20:04:39.957Z,70.60
2018-05-25T20:07:08.245Z,70.50
2018-05-25T20:09:37.343Z,70.70
2018-05-25T20:12:06.323Z,70.90
2018-05-25T20:14:34.575Z,70.90
2018-05-25T20:17:03.579Z,71.90
2018-05-25T20:19:32.595Z,72.80
2018-05-25T20:22:00.826Z,72.00
2018-05-25T20:24:29.835Z,72.80
2018-05-25T20:26:58.849Z,72.10
2018-05-25T20:29:27.120Z,72.10
2018-05-25T20:31:55.362Z,72.40
2018-05-25T20:34:23.633Z,72.80
2018-05-25T20:36:51.862Z,72.60
2018-05-25T20:39:20.098Z,73.20
2018-05-25T20:41:49.134Z,73.30
2018-05-25T20:44:17.382Z,73.30
2018-05-25T20:46:45.635Z,73.20
2018-05-25T20:49:13.885Z,73.30
2018-05-25T20:51:42.134Z,73.70
2018-05-25T20:54:10.382Z,73.90
2018-05-25T20:56:39.382Z,74.30
2018-05-25T20:59:07.629Z,74.20
2018-05-25T21:01:35.862Z,74.40
2018-05-25T21:04:04.099Z,74.70
2018-05-25T21:06:33.169Z,75.00
2018-05-25T21:09:01.423Z,75.00
2018-05-25T21:11:29.679Z,75.30
2018-05-25T21:13:57.915Z,75.20
2018-05-25T21:16:26.914Z,75.00
2018-05-25T21:18:55.936Z,75.40
2018-05-25T21:21:24.169Z,75.50
2018-05-25T21:23:52.410Z,75.50
2018-05-25T21:26:20.654Z,76.50
2018-05-25T21:28:48.882Z,75.70
2018-05-25T21:31:17.133Z,76.10
2018-05-25T21:33:45.382Z,76.30
2018-05-25T21:36:13.835Z,76.40
2018-05-25T21:38:42.839Z,76.40
2018-05-25T21:41:11.082Z,76.50
2018-05-25T21:43:39.798Z,76.60
2018-05-25T21:46:08.042Z,76.60
2018-05-25T21:48:36.275Z,77.00
2018-05-25T21:51:04.726Z,77.10
2018-05-25T21:53:33.730Z,77.10
2018-05-25T21:56:01.967Z,77.00
2018-05-25T21:58:30.214Z,77.10
2018-05-25T22:00:58.541Z,77.20
2018-05-25T22:03:27.553Z,77.40
2018-05-25T22:05:55.786Z,77.40
2018-05-25T22:08:24.018Z,77.30
2018-05-25T22:10:52.266Z,77.30
2018-05-25T22:13:21.286Z,77.60
2018-05-25T22:15:49.531Z,77.60
2018-05-25T22:18:18.541Z,77.70
2018-05-25T22:20:46.787Z,77.70
2018-05-25T22:23:15.041Z,78.00
2018-05-25T22:25:43.277Z,78.30
2018-05-25T22:28:11.729Z,78.30
2018-05-25T22:30:40.735Z,78.00
2018-05-25T22:33:08.962Z,78.10
2018-05-25T22:35:37.219Z,78.60
2018-05-25T22:38:05.468Z,78.20
2018-05-25T22:40:33.743Z,78.30
2018-05-25T22:43:19.765Z,78.10
2018-05-25T22:46:05.686Z,78.10
2018-05-25T22:48:51.962Z,77.80
2018-05-25T22:51:38.024Z,78.40
2018-05-25T22:54:11.297Z,78.40
2018-05-25T22:56:40.307Z,78.80
2018-05-25T22:59:08.546Z,78.70
2018-05-25T23:01:37.146Z,78.30
2018-05-25T23:04:06.168Z,77.90
2018-05-25T23:06:34.410Z,77.80
2018-05-25T23:09:03.414Z,78.40
2018-05-25T23:11:31.671Z,78.40
2018-05-25T23:13:59.903Z,78.40
2018-05-25T23:19:03.603Z,79.20
2018-05-25T23:21:31.839Z,78.40
2018-05-25T23:24:00.087Z,78.70
2018-05-25T23:26:28.514Z,79.00
2018-05-25T23:28:56.759Z,78.90
2018-05-25T23:31:24.990Z,78.90
2018-05-25T23:33:53.235Z,79.00
2018-05-25T23:36:22.242Z,79.00
2018-05-25T23:38:51.482Z,78.90
2018-05-25T23:41:19.706Z,79.00
2018-05-25T23:43:48.742Z,78.90
2018-05-25T23:46:16.969Z,78.90
2018-05-25T23:48:45.995Z,79.00
2018-05-25T23:51:14.227Z,78.90
2018-05-25T23:53:43.254Z,79.00
2018-05-25T23:56:11.486Z,79.00
2018-05-25T23:58:40.098Z,79.20
